createdAt,value
2018-03-07T00:01:41.262Z,5.87
2018-03-07T00:04:09.616Z,6.60
2018-03-07T00:06:37.196Z,6.40
2018-03-07T00:09:04.920Z,5.07
2018-03-07T00:11:32.481Z,7.10
2018-03-07T00:14:00.060Z,7.50
2018-03-07T00:16:27.670Z,6.10
2018-03-07T00:18:56.074Z,5.40
2018-03-07T00:21:23.609Z,6.37
2018-03-07T00:23:51.954Z,5.90
2018-03-07T00:26:19.537Z,5.73
2018-03-07T00:28:47.143Z,5.73
2018-03-07T00:31:14.736Z,5.33
2018-03-07T00:33:42.310Z,6.00
2018-03-07T00:36:09.872Z,5.60
2018-03-07T00:38:37.457Z,5.67
2018-03-07T00:41:06.493Z,6.47
2018-03-07T00:43:34.035Z,5.77
2018-03-07T00:46:01.636Z,5.73
2018-03-07T00:48:29.207Z,6.93
2018-03-07T00:50:57.548Z,6.23
2018-03-07T00:53:25.078Z,6.07
2018-03-07T00:55:52.626Z,5.63
2018-03-07T00:58:20.989Z,6.57
2018-03-07T01:00:49.593Z,6.00
2018-03-07T01:03:17.156Z,6.40
2018-03-07T01:05:44.844Z,6.23
2018-03-07T01:08:12.432Z,6.07
2018-03-07T01:10:40.080Z,5.27
2018-03-07T01:13:07.644Z,7.10
2018-03-07T01:15:35.218Z,5.67
2018-03-07T01:18:02.894Z,5.80
2018-03-07T01:20:30.486Z,4.93
2018-03-07T01:22:58.070Z,6.63
2018-03-07T01:25:25.616Z,6.60
2018-03-07T01:27:53.200Z,5.27
2018-03-07T01:30:21.690Z,5.27
2018-03-07T01:32:49.250Z,5.60
2018-03-07T01:35:16.913Z,5.00
2018-03-07T01:37:44.434Z,5.30
2018-03-07T01:40:12.048Z,5.10
2018-03-07T01:42:39.652Z,5.10
2018-03-07T01:45:08.084Z,5.00
2018-03-07T01:47:35.634Z,5.63
2018-03-07T01:50:03.225Z,4.60
2018-03-07T01:52:31.541Z,4.67
2018-03-07T01:54:59.113Z,5.30
2018-03-07T01:57:26.656Z,4.83
2018-03-07T01:59:54.228Z,5.10
2018-03-07T02:02:21.928Z,6.00
2018-03-07T02:04:49.478Z,4.93
2018-03-07T02:07:17.058Z,5.37
2018-03-07T02:09:45.428Z,4.87
2018-03-07T02:12:13.021Z,4.73
2018-03-07T02:14:40.602Z,5.40
2018-03-07T02:17:08.191Z,4.90
2018-03-07T02:19:35.734Z,4.47
2018-03-07T02:22:03.302Z,5.10
2018-03-07T02:24:30.848Z,5.10
2018-03-07T02:26:58.454Z,4.43
2018-03-07T02:29:26.759Z,5.37
2018-03-07T02:31:54.332Z,4.87
2018-03-07T02:34:21.885Z,6.03
2018-03-07T02:36:49.436Z,4.53
2018-03-07T02:39:17.070Z,4.27
2018-03-07T02:41:45.469Z,5.83
2018-03-07T02:44:13.151Z,4.80
2018-03-07T02:46:40.695Z,5.10
2018-03-07T02:49:08.327Z,4.27
2018-03-07T02:51:36.682Z,4.23
2018-03-07T02:54:04.309Z,4.83
2018-03-07T02:56:31.890Z,4.63
2018-03-07T02:58:59.442Z,4.47
2018-03-07T03:01:27.039Z,4.97
2018-03-07T03:03:54.782Z,4.60
2018-03-07T03:06:22.465Z,4.60
2018-03-07T03:08:50.034Z,4.77
2018-03-07T03:11:18.398Z,5.23
2018-03-07T03:13:45.935Z,3.90
2018-03-07T03:16:13.722Z,5.00
2018-03-07T03:18:41.294Z,4.30
2018-03-07T03:21:09.814Z,3.70
2018-03-07T03:23:37.388Z,4.73
2018-03-07T03:26:04.995Z,4.47
2018-03-07T03:28:32.564Z,4.30
2018-03-07T03:31:00.926Z,4.20
2018-03-07T03:33:28.469Z,4.80
2018-03-07T03:35:56.026Z,4.20
2018-03-07T03:38:23.601Z,3.70
2018-03-07T03:40:51.153Z,4.17
2018-03-07T03:43:18.706Z,5.03
2018-03-07T03:45:46.287Z,4.07
2018-03-07T03:48:13.876Z,3.77
2018-03-07T03:50:41.476Z,3.30
2018-03-07T03:53:09.033Z,3.40
2018-03-07T03:55:36.673Z,4.63
2018-03-07T03:58:04.244Z,3.73
2018-03-07T04:00:31.827Z,3.63
2018-03-07T04:02:59.391Z,3.53
2018-03-07T04:05:26.963Z,4.43
2018-03-07T04:07:54.527Z,4.03
2018-03-07T04:10:22.095Z,4.50
2018-03-07T04:12:50.435Z,3.83
2018-03-07T04:15:18.008Z,3.67
2018-03-07T04:17:45.609Z,4.20
2018-03-07T04:20:13.933Z,4.00
2018-03-07T04:22:41.513Z,3.67
2018-03-07T04:25:09.090Z,3.70
2018-03-07T04:27:37.624Z,3.97
2018-03-07T04:30:05.347Z,3.83
2018-03-07T04:32:32.933Z,4.10
2018-03-07T04:35:00.602Z,3.60
2018-03-07T04:37:28.177Z,3.60
2018-03-07T04:39:55.765Z,4.03
2018-03-07T04:42:23.355Z,3.97
2018-03-07T04:44:51.663Z,3.50
2018-03-07T04:47:19.267Z,2.87
2018-03-07T04:49:46.819Z,2.60
2018-03-07T04:52:14.550Z,3.23
2018-03-07T04:54:42.097Z,3.03
2018-03-07T04:57:09.635Z,3.60
2018-03-07T04:59:37.174Z,3.60
2018-03-07T05:02:05.659Z,3.07
2018-03-07T05:04:33.962Z,2.80
2018-03-07T05:07:01.521Z,3.37
2018-03-07T05:09:29.097Z,3.10
2018-03-07T05:11:56.651Z,2.63
2018-03-07T05:14:24.185Z,2.63
2018-03-07T05:16:52.539Z,3.30
2018-03-07T05:19:20.109Z,3.13
2018-03-07T05:21:48.455Z,2.60
2018-03-07T05:24:16.013Z,3.40
2018-03-07T05:26:43.646Z,2.97
2018-03-07T05:29:11.239Z,2.83
2018-03-07T05:31:38.791Z,2.93
2018-03-07T05:34:06.376Z,2.50
2018-03-07T05:36:34.027Z,2.30
2018-03-07T05:39:02.399Z,2.70
2018-03-07T05:41:29.944Z,2.70
2018-03-07T05:43:57.526Z,2.50
2018-03-07T05:46:25.116Z,2.27
2018-03-07T05:48:53.438Z,3.10
2018-03-07T05:51:21.052Z,2.67
2018-03-07T05:53:49.386Z,2.37
2018-03-07T05:56:18.003Z,2.70
2018-03-07T05:58:45.603Z,2.50
2018-03-07T06:01:13.166Z,1.80
2018-03-07T06:03:40.756Z,1.90
2018-03-07T06:06:08.351Z,2.30
2018-03-07T06:08:36.868Z,2.50
2018-03-07T06:11:04.442Z,2.20
2018-03-07T06:13:32.189Z,2.03
2018-03-07T06:15:59.782Z,2.67
2018-03-07T06:18:27.368Z,2.20
2018-03-07T06:20:55.570Z,2.27
2018-03-07T06:23:23.181Z,2.13
2018-03-07T06:25:50.737Z,2.43
2018-03-07T06:28:18.306Z,2.00
2018-03-07T06:30:45.874Z,2.10
2018-03-07T06:33:13.513Z,2.27
2018-03-07T06:35:41.077Z,2.20
2018-03-07T06:38:08.652Z,2.10
2018-03-07T06:40:37.014Z,1.70
2018-03-07T06:43:04.558Z,1.77
2018-03-07T06:45:32.185Z,2.10
2018-03-07T06:47:59.794Z,2.20
2018-03-07T06:50:27.398Z,2.13
2018-03-07T06:52:55.722Z,1.70
2018-03-07T06:55:23.367Z,1.47
2018-03-07T06:57:50.958Z,1.73
2018-03-07T07:00:18.583Z,2.60
2018-03-07T07:02:46.142Z,2.10
2018-03-07T07:05:13.714Z,5.30
2018-03-07T07:07:41.286Z,3.23
2018-03-07T07:10:08.862Z,3.50
2018-03-07T07:12:36.403Z,3.40
2018-03-07T07:15:04.006Z,3.57
2018-03-07T07:17:32.376Z,3.20
2018-03-07T07:19:59.982Z,3.00
2018-03-07T07:22:28.152Z,2.97
2018-03-07T07:24:55.698Z,3.90
2018-03-07T07:27:24.366Z,3.53
2018-03-07T07:29:51.960Z,2.90
2018-03-07T07:32:19.554Z,3.13
2018-03-07T07:34:47.334Z,3.07
2018-03-07T07:37:14.899Z,2.53
2018-03-07T07:39:43.240Z,2.10
2018-03-07T07:42:10.832Z,2.97
2018-03-07T07:44:38.386Z,3.87
2018-03-07T07:47:06.178Z,2.27
2018-03-07T07:49:34.484Z,2.80
2018-03-07T07:52:02.055Z,2.97
2018-03-07T07:54:29.651Z,3.40
2018-03-07T07:56:57.222Z,2.00
2018-03-07T07:59:25.559Z,2.40
2018-03-07T08:01:53.280Z,3.17
2018-03-07T08:04:21.647Z,2.20
2018-03-07T08:06:49.956Z,2.40
2018-03-07T08:09:18.498Z,2.10
2018-03-07T08:11:46.786Z,2.80
2018-03-07T08:14:15.197Z,2.50
2018-03-07T08:16:42.736Z,2.83
2018-03-07T08:19:10.312Z,2.63
2018-03-07T08:21:37.888Z,1.87
2018-03-07T08:24:05.433Z,1.83
2018-03-07T08:26:33.014Z,2.20
2018-03-07T08:29:00.555Z,1.80
2018-03-07T08:31:28.215Z,1.67
2018-03-07T08:33:55.758Z,1.37
2018-03-07T08:36:23.322Z,1.80
2018-03-07T08:38:50.959Z,1.67
2018-03-07T08:41:19.286Z,2.07
2018-03-07T08:43:46.936Z,1.50
2018-03-07T08:46:14.525Z,1.53
2018-03-07T08:48:42.077Z,2.47
2018-03-07T08:51:09.717Z,1.90
2018-03-07T08:53:37.300Z,1.73
2018-03-07T08:56:04.843Z,2.03
2018-03-07T08:58:32.611Z,1.90
2018-03-07T09:01:00.176Z,1.40
2018-03-07T09:03:27.912Z,1.20
2018-03-07T09:05:55.479Z,1.03
2018-03-07T09:08:23.157Z,1.27
2018-03-07T09:10:50.726Z,1.57
2018-03-07T09:13:18.306Z,1.50
2018-03-07T09:15:47.393Z,1.20
2018-03-07T09:18:15.017Z,1.43
2018-03-07T09:20:42.603Z,1.73
2018-03-07T09:23:10.175Z,1.10
2018-03-07T09:25:37.849Z,1.10
2018-03-07T09:28:06.161Z,1.60
2018-03-07T09:30:33.921Z,1.00
2018-03-07T09:33:02.236Z,1.20
2018-03-07T09:35:29.921Z,1.30
2018-03-07T09:37:57.549Z,0.90
2018-03-07T09:40:25.147Z,0.93
2018-03-07T09:42:52.725Z,1.13
2018-03-07T09:45:21.261Z,1.30
2018-03-07T09:47:48.821Z,1.30
2018-03-07T09:50:16.587Z,1.00
2018-03-07T09:52:44.335Z,1.20
2018-03-07T09:55:12.063Z,1.20
2018-03-07T09:57:40.681Z,1.60
2018-03-07T10:00:09.050Z,1.10
2018-03-07T10:02:36.625Z,1.13
2018-03-07T10:05:04.262Z,1.00
2018-03-07T10:07:31.814Z,1.00
2018-03-07T10:10:00.144Z,1.20
2018-03-07T10:12:27.746Z,1.33
2018-03-07T10:14:56.059Z,1.17
2018-03-07T10:17:23.616Z,1.30
2018-03-07T10:19:51.188Z,1.00
2018-03-07T10:22:18.782Z,0.70
2018-03-07T10:24:46.494Z,1.07
2018-03-07T10:27:14.072Z,1.00
2018-03-07T10:29:41.782Z,1.30
2018-03-07T10:32:10.198Z,1.10
2018-03-07T10:34:37.750Z,0.83
2018-03-07T10:37:05.369Z,0.93
2018-03-07T10:39:32.928Z,0.80
2018-03-07T10:42:00.525Z,0.80
2018-03-07T10:44:28.112Z,1.10
2018-03-07T10:46:55.730Z,0.80
2018-03-07T10:49:24.084Z,0.77
2018-03-07T10:51:51.745Z,1.00
2018-03-07T10:54:19.556Z,0.70
2018-03-07T10:56:47.091Z,0.77
2018-03-07T10:59:15.451Z,0.83
2018-03-07T11:01:43.016Z,1.03
2018-03-07T11:04:10.550Z,0.83
2018-03-07T11:06:38.130Z,0.90
2018-03-07T11:09:06.484Z,1.17
2018-03-07T11:11:34.065Z,0.90
2018-03-07T11:14:01.612Z,0.60
2018-03-07T11:16:29.204Z,0.80
2018-03-07T11:18:57.550Z,0.83
2018-03-07T11:21:25.907Z,0.77
2018-03-07T11:23:53.514Z,0.80
2018-03-07T11:26:21.818Z,1.07
2018-03-07T11:28:49.392Z,0.70
2018-03-07T11:31:16.958Z,0.60
2018-03-07T11:33:44.543Z,0.70
2018-03-07T11:36:12.092Z,0.70
2018-03-07T11:38:39.662Z,0.70
2018-03-07T11:41:07.280Z,0.70
2018-03-07T11:43:34.848Z,0.80
2018-03-07T11:46:02.564Z,0.80
2018-03-07T11:48:30.138Z,0.70
2018-03-07T11:50:58.454Z,1.23
2018-03-07T11:53:26.042Z,0.90
2018-03-07T11:55:53.609Z,0.87
2018-03-07T11:58:21.952Z,0.70
2018-03-07T12:00:49.622Z,0.93
2018-03-07T12:03:17.218Z,0.60
2018-03-07T12:05:46.318Z,0.93
2018-03-07T12:08:13.864Z,1.00
2018-03-07T12:10:41.442Z,0.70
2018-03-07T12:13:09.046Z,0.83
2018-03-07T12:15:36.638Z,1.10
2018-03-07T12:18:04.220Z,1.97
2018-03-07T12:20:31.775Z,0.93
2018-03-07T12:23:00.104Z,1.50
2018-03-07T12:25:27.758Z,0.97
2018-03-07T12:27:55.344Z,1.30
2018-03-07T12:30:22.894Z,0.80
2018-03-07T12:32:50.532Z,1.50
2018-03-07T12:35:18.064Z,0.87
2018-03-07T12:37:45.718Z,1.13
2018-03-07T12:40:13.274Z,1.33
2018-03-07T12:42:40.846Z,0.90
2018-03-07T12:45:09.266Z,1.10
2018-03-07T12:47:36.927Z,0.80
2018-03-07T12:50:04.496Z,0.80
2018-03-07T12:52:32.153Z,0.70
2018-03-07T12:54:59.762Z,0.80
2018-03-07T12:57:27.324Z,1.23
2018-03-07T12:59:54.894Z,1.37
2018-03-07T13:02:23.226Z,0.70
2018-03-07T13:04:50.790Z,0.73
2018-03-07T13:07:18.375Z,0.70
2018-03-07T13:09:45.943Z,1.03
2018-03-07T13:12:13.527Z,0.80
2018-03-07T13:14:41.862Z,0.67
2018-03-07T13:17:09.458Z,0.60
2018-03-07T13:19:37.079Z,0.80
2018-03-07T13:22:04.647Z,0.80
2018-03-07T13:24:32.260Z,0.60
2018-03-07T13:26:59.827Z,0.60
2018-03-07T13:29:27.410Z,0.57
2018-03-07T13:31:54.968Z,0.60
2018-03-07T13:34:22.545Z,0.80
2018-03-07T13:36:50.100Z,0.53
2018-03-07T13:39:18.434Z,0.60
2018-03-07T13:41:46.052Z,0.60
2018-03-07T13:44:14.409Z,0.60
2018-03-07T13:46:42.047Z,0.70
2018-03-07T13:49:09.641Z,1.10
2018-03-07T13:51:37.243Z,1.87
2018-03-07T13:54:05.023Z,0.83
2018-03-07T13:56:32.615Z,0.60
2018-03-07T13:59:00.969Z,0.50
2018-03-07T14:01:28.624Z,0.50
2018-03-07T14:03:56.200Z,0.50
2018-03-07T14:06:23.845Z,0.60
2018-03-07T14:08:51.455Z,0.40
2018-03-07T14:11:19.011Z,0.83
2018-03-07T14:13:46.561Z,0.63
2018-03-07T14:16:14.144Z,0.60
2018-03-07T14:18:42.470Z,0.60
2018-03-07T14:21:10.211Z,0.60
2018-03-07T14:23:37.784Z,0.47
2018-03-07T14:26:05.373Z,0.50
2018-03-07T14:28:32.940Z,0.60
2018-03-07T14:31:00.537Z,0.70
2018-03-07T14:33:28.853Z,0.70
2018-03-07T14:35:56.451Z,0.57
2018-03-07T14:38:24.009Z,0.53
2018-03-07T14:40:51.587Z,0.50
2018-03-07T14:43:19.923Z,0.70
2018-03-07T14:45:47.534Z,0.40
2018-03-07T14:48:15.835Z,0.57
2018-03-07T14:50:43.401Z,0.50
2018-03-07T14:53:10.977Z,0.60
2018-03-07T14:55:38.537Z,0.50
2018-03-07T14:58:06.237Z,0.40
2018-03-07T15:00:33.808Z,0.50
2018-03-07T15:03:02.112Z,0.40
2018-03-07T15:05:29.733Z,0.40
2018-03-07T15:07:57.337Z,0.40
2018-03-07T15:10:25.059Z,0.40
2018-03-07T15:12:52.607Z,0.40
2018-03-07T15:15:20.173Z,0.40
2018-03-07T15:17:47.781Z,0.40
2018-03-07T15:20:15.336Z,0.40
2018-03-07T15:22:42.886Z,0.63
2018-03-07T15:25:10.527Z,0.40
2018-03-07T15:27:38.903Z,0.50
2018-03-07T15:30:07.237Z,0.40
2018-03-07T15:32:34.801Z,0.50
2018-03-07T15:35:02.401Z,0.47
2018-03-07T15:37:31.640Z,0.60
2018-03-07T15:39:59.275Z,0.40
2018-03-07T15:42:27.621Z,0.40
2018-03-07T15:44:55.167Z,0.40
2018-03-07T15:47:22.777Z,0.50
2018-03-07T15:49:50.340Z,0.40
2018-03-07T15:52:18.014Z,0.30
2018-03-07T15:54:45.595Z,0.47
2018-03-07T15:57:13.193Z,0.30
2018-03-07T15:59:40.903Z,0.40
2018-03-07T16:02:08.499Z,0.40
2018-03-07T16:04:36.081Z,0.40
2018-03-07T16:07:04.606Z,0.40
2018-03-07T16:09:32.183Z,0.30
2018-03-07T16:11:59.712Z,0.60
2018-03-07T16:14:27.296Z,0.40
2018-03-07T16:16:54.994Z,0.70
2018-03-07T16:19:22.704Z,0.40
2018-03-07T16:21:50.287Z,0.43
2018-03-07T16:24:18.003Z,0.60
2018-03-07T16:26:46.361Z,0.60
2018-03-07T16:29:13.925Z,0.70
2018-03-07T16:31:41.508Z,0.60
2018-03-07T16:34:09.860Z,0.50
2018-03-07T16:36:37.465Z,0.50
2018-03-07T16:39:05.025Z,1.40
2018-03-07T16:41:32.636Z,3.20
2018-03-07T16:44:00.247Z,3.83
2018-03-07T16:46:27.876Z,1.70
2018-03-07T16:48:56.258Z,1.27
2018-03-07T16:51:24.594Z,1.33
2018-03-07T16:53:52.148Z,1.70
2018-03-07T16:56:19.782Z,1.27
2018-03-07T16:58:48.075Z,1.17
2018-03-07T17:01:15.679Z,1.03
2018-03-07T17:03:43.998Z,1.00
2018-03-07T17:06:11.581Z,0.80
2018-03-07T17:08:39.145Z,0.90
2018-03-07T17:11:06.828Z,0.60
2018-03-07T17:13:34.427Z,6.20
2018-03-07T17:16:02.120Z,1.97
2018-03-07T17:18:29.741Z,2.30
2018-03-07T17:20:57.330Z,1.67
2018-03-07T17:23:24.935Z,1.40
2018-03-07T17:25:52.528Z,1.27
2018-03-07T17:28:20.120Z,1.30
2018-03-07T17:30:47.727Z,1.57
2018-03-07T17:33:16.066Z,1.40
2018-03-07T17:35:43.636Z,1.37
2018-03-07T17:38:11.201Z,1.80
2018-03-07T17:40:39.582Z,1.57
2018-03-07T17:43:07.314Z,0.80
2018-03-07T17:45:34.968Z,1.13
2018-03-07T17:48:02.588Z,1.47
2018-03-07T17:50:31.216Z,0.90
2018-03-07T17:52:58.781Z,3.33
2018-03-07T17:55:26.378Z,1.00
2018-03-07T17:57:53.972Z,1.90
2018-03-07T18:00:21.527Z,1.00
2018-03-07T18:02:49.886Z,1.67
2018-03-07T18:05:18.214Z,0.87
2018-03-07T18:07:45.832Z,1.10
2018-03-07T18:10:14.172Z,1.07
2018-03-07T18:12:41.749Z,0.87
2018-03-07T18:15:09.374Z,1.43
2018-03-07T18:17:36.947Z,1.27
2018-03-07T18:20:04.530Z,0.90
2018-03-07T18:22:32.112Z,1.27
2018-03-07T18:25:00.839Z,1.03
2018-03-07T18:27:28.514Z,1.23
2018-03-07T18:29:56.189Z,0.87
2018-03-07T18:32:23.930Z,0.90
2018-03-07T18:34:51.547Z,1.23
2018-03-07T18:37:21.093Z,0.90
2018-03-07T18:39:48.659Z,0.90
2018-03-07T18:42:16.420Z,1.53
2018-03-07T18:44:44.134Z,1.00
2018-03-07T18:47:12.467Z,0.90
2018-03-07T18:49:40.061Z,1.10
2018-03-07T18:52:07.643Z,1.00
2018-03-07T18:54:36.049Z,1.30
2018-03-07T18:57:03.649Z,1.10
2018-03-07T18:59:31.277Z,0.73
2018-03-07T19:01:58.874Z,0.87
2018-03-07T19:04:26.669Z,0.73
2018-03-07T19:06:55.105Z,1.03
2018-03-07T19:09:22.741Z,1.10
2018-03-07T19:11:50.378Z,0.70
2018-03-07T19:14:18.724Z,1.00
2018-03-07T19:16:46.345Z,0.70
2018-03-07T19:19:13.903Z,1.10
2018-03-07T19:21:41.541Z,1.10
2018-03-07T19:24:09.160Z,1.00
2018-03-07T19:26:36.696Z,0.90
2018-03-07T19:29:04.459Z,1.23
2018-03-07T19:31:32.061Z,0.70
2018-03-07T19:33:59.663Z,0.70
2018-03-07T19:36:27.258Z,0.83
2018-03-07T19:38:54.860Z,0.70
2018-03-07T19:41:23.266Z,0.80
2018-03-07T19:43:50.984Z,0.80
2018-03-07T19:46:19.773Z,0.70
2018-03-07T19:48:47.422Z,0.83
2018-03-07T19:51:15.223Z,0.80
2018-03-07T19:53:42.857Z,1.20
2018-03-07T19:56:10.486Z,0.77
2018-03-07T19:58:39.279Z,0.80
2018-03-07T20:01:06.883Z,0.83
2018-03-07T20:03:35.305Z,0.70
2018-03-07T20:06:02.883Z,0.50
2018-03-07T20:08:30.497Z,2.20
2018-03-07T20:10:59.205Z,0.70
2018-03-07T20:13:26.830Z,0.60
2018-03-07T20:15:55.268Z,0.60
2018-03-07T20:18:22.918Z,0.83
2018-03-07T20:20:51.255Z,1.13
2018-03-07T20:23:19.667Z,0.73
2018-03-07T20:25:47.339Z,0.80
2018-03-07T20:28:15.705Z,0.53
2018-03-07T20:30:43.376Z,0.70
2018-03-07T20:33:10.991Z,0.70
2018-03-07T20:35:39.595Z,0.60
2018-03-07T20:38:07.210Z,0.67
2018-03-07T20:40:34.899Z,0.60
2018-03-07T20:43:03.300Z,0.70
2018-03-07T20:45:30.978Z,0.47
2018-03-07T20:47:58.581Z,0.60
2018-03-07T20:50:26.167Z,0.90
2018-03-07T20:52:53.854Z,0.60
2018-03-07T20:55:22.214Z,0.40
2018-03-07T20:57:50.629Z,0.60
2018-03-07T21:00:18.209Z,0.87
2018-03-07T21:02:45.966Z,0.60
2018-03-07T21:05:13.884Z,0.60
2018-03-07T21:07:42.271Z,0.57
2018-03-07T21:10:09.907Z,0.60
2018-03-07T21:12:38.263Z,0.60
2018-03-07T21:15:06.648Z,0.60
2018-03-07T21:17:35.751Z,0.60
2018-03-07T21:20:04.635Z,0.40
2018-03-07T21:22:32.244Z,0.60
2018-03-07T21:24:59.854Z,0.53
2018-03-07T21:27:27.435Z,0.63
2018-03-07T21:29:55.792Z,0.50
2018-03-07T21:32:23.511Z,0.77
2018-03-07T21:34:51.270Z,0.70
2018-03-07T21:37:18.841Z,0.50
2018-03-07T21:39:46.569Z,0.50
2018-03-07T21:42:14.883Z,0.50
2018-03-07T21:44:42.511Z,0.57
2018-03-07T21:47:11.007Z,0.50
2018-03-07T21:49:38.683Z,0.43
2018-03-07T21:52:06.273Z,0.50
2018-03-07T21:54:33.841Z,0.40
2018-03-07T21:57:01.634Z,0.50
2018-03-07T21:59:29.963Z,0.50
2018-03-07T22:01:57.850Z,0.40
2018-03-07T22:04:25.430Z,0.50
2018-03-07T22:06:52.968Z,0.57
2018-03-07T22:09:20.515Z,0.50
2018-03-07T22:11:48.052Z,0.60
2018-03-07T22:14:15.605Z,0.50
2018-03-07T22:16:43.271Z,0.60
2018-03-07T22:19:10.962Z,0.60
2018-03-07T22:21:38.574Z,0.60
2018-03-07T22:24:06.158Z,0.60
2018-03-07T22:26:33.787Z,0.80
2018-03-07T22:29:02.134Z,0.80
2018-03-07T22:31:29.773Z,0.50
2018-03-07T22:33:57.382Z,0.90
2018-03-07T22:36:25.740Z,0.70
2018-03-07T22:38:53.280Z,0.50
2018-03-07T22:41:20.877Z,0.40
2018-03-07T22:43:49.200Z,0.40
2018-03-07T22:46:16.804Z,0.50
2018-03-07T22:48:44.391Z,0.50
2018-03-07T22:51:11.998Z,0.40
2018-03-07T22:53:39.606Z,0.50
2018-03-07T22:56:07.919Z,0.40
2018-03-07T22:58:35.496Z,0.40
2018-03-07T23:01:03.108Z,0.50
2018-03-07T23:03:30.772Z,0.40
2018-03-07T23:05:59.070Z,0.60
2018-03-07T23:08:26.763Z,0.70
2018-03-07T23:10:54.329Z,0.80
2018-03-07T23:13:21.909Z,0.70
2018-03-07T23:15:50.226Z,0.50
2018-03-07T23:18:17.870Z,0.40
2018-03-07T23:20:46.186Z,0.40
2018-03-07T23:23:13.765Z,0.47
2018-03-07T23:25:41.323Z,0.60
2018-03-07T23:28:08.896Z,0.60
2018-03-07T23:30:37.387Z,0.40
2018-03-07T23:33:05.721Z,0.70
2018-03-07T23:35:33.330Z,0.70
2018-03-07T23:38:01.655Z,0.40
2018-03-07T23:40:29.405Z,0.40
2018-03-07T23:42:57.047Z,0.40
2018-03-07T23:45:24.777Z,0.40
2018-03-07T23:47:52.346Z,0.53
2018-03-07T23:50:19.916Z,0.50
2018-03-07T23:52:48.287Z,0.40
2018-03-07T23:55:15.874Z,0.40
2018-03-07T23:57:43.475Z,0.50
